createdAt,value
2023-03-24T00:02:04.842Z,4.72
2023-03-24T00:04:32.914Z,4.80
2023-03-24T00:07:01.832Z,3.20
2023-03-24T00:09:32.590Z,9.68
2023-03-24T00:12:00.745Z,8.38
2023-03-24T00:14:30.737Z,9.60
2023-03-24T00:19:26.837Z,11.23
2023-03-24T00:21:55.952Z,7.45
2023-03-24T00:24:23.590Z,6.13
2023-03-24T00:26:51.981Z,7.82
2023-03-24T00:29:20.180Z,3.17
2023-03-24T00:31:47.605Z,7.88
2023-03-24T00:34:15.254Z,9.18
2023-03-24T00:36:42.587Z,11.65
2023-03-24T00:39:09.950Z,6.45
2023-03-24T00:41:36.910Z,4.20
2023-03-24T00:44:06.066Z,8.82
2023-03-24T00:46:34.111Z,4.55
2023-03-24T00:49:07.318Z,6.75
2023-03-24T00:51:39.888Z,7.18
2023-03-24T00:54:09.268Z,8.48
2023-03-24T00:56:40.842Z,2.15
2023-03-24T00:59:10.479Z,5.90
2023-03-24T01:01:41.286Z,4.85
2023-03-24T01:04:10.490Z,5.25
2023-03-24T01:06:38.425Z,5.00
2023-03-24T01:09:06.153Z,3.08
2023-03-24T01:11:40.189Z,5.78
2023-03-24T01:14:09.795Z,5.25
2023-03-24T01:16:37.211Z,3.42
2023-03-24T01:19:05.436Z,5.93
2023-03-24T01:21:35.096Z,6.63
2023-03-24T01:24:03.342Z,4.65
2023-03-24T01:26:30.717Z,4.20
2023-03-24T01:28:58.192Z,6.93
2023-03-24T01:31:25.609Z,8.27
2023-03-24T01:33:53.044Z,6.18
2023-03-24T01:36:20.148Z,4.22
2023-03-24T01:38:47.478Z,7.22
2023-03-24T01:41:14.460Z,3.35
2023-03-24T01:43:41.377Z,6.75
2023-03-24T01:46:14.007Z,8.18
2023-03-24T01:49:01.385Z,10.18
2023-03-24T01:51:34.754Z,3.70
2023-03-24T01:54:08.045Z,6.13
2023-03-24T01:56:38.714Z,5.75
2023-03-24T01:59:13.323Z,5.78
2023-03-24T02:01:40.458Z,6.00
2023-03-24T02:04:08.147Z,5.32
2023-03-24T02:06:41.171Z,8.23
2023-03-24T02:09:09.046Z,7.53
2023-03-24T02:11:37.997Z,6.78
2023-03-24T02:14:07.305Z,9.82
2023-03-24T02:16:49.165Z,6.47
2023-03-24T02:19:16.521Z,7.18
2023-03-24T02:21:55.639Z,7.28
2023-03-24T02:24:22.952Z,9.15
2023-03-24T02:26:53.018Z,3.67
2023-03-24T02:32:17.016Z,7.07
2023-03-24T02:34:56.385Z,7.45
2023-03-24T02:38:01.010Z,5.72
2023-03-24T02:40:34.044Z,4.13
2023-03-24T02:43:28.825Z,5.47
2023-03-24T02:49:19.287Z,7.68
2023-03-24T02:51:49.074Z,3.08
2023-03-24T02:54:27.194Z,8.77
2023-03-24T02:57:04.088Z,8.07
2023-03-24T02:59:31.419Z,15.80
2023-03-24T03:02:09.279Z,8.73
2023-03-24T03:05:14.024Z,7.07
2023-03-24T03:07:44.777Z,6.63
2023-03-24T03:10:17.963Z,4.90
2023-03-24T03:12:50.196Z,9.48
2023-03-24T03:15:28.275Z,7.80
2023-03-24T03:18:11.331Z,8.10
2023-03-24T03:20:51.020Z,3.55
2023-03-24T03:23:28.485Z,3.28
2023-03-24T03:26:05.975Z,12.27
2023-03-24T03:28:36.707Z,5.32
2023-03-24T03:31:07.528Z,9.15
2023-03-24T03:33:40.835Z,25.17
2023-03-24T03:36:10.946Z,5.10
2023-03-24T03:39:18.382Z,6.30
2023-03-24T03:41:46.268Z,7.22
2023-03-24T03:44:13.342Z,6.43
2023-03-24T03:46:41.174Z,5.53
2023-03-24T03:49:09.040Z,6.28
2023-03-24T03:51:36.537Z,10.45
2023-03-24T03:54:07.570Z,9.55
2023-03-24T03:56:36.818Z,5.57
2023-03-24T03:59:06.261Z,5.70
2023-03-24T04:01:37.640Z,11.57
2023-03-24T04:04:42.254Z,5.63
2023-03-24T04:07:20.050Z,4.47
2023-03-24T04:09:55.537Z,4.60
2023-03-24T04:12:28.889Z,6.35
2023-03-24T04:15:11.466Z,3.50
2023-03-24T04:18:03.471Z,15.45
2023-03-24T04:20:56.909Z,8.48
2023-03-24T04:23:42.601Z,7.22
2023-03-24T04:26:10.563Z,9.63
2023-03-24T04:28:58.295Z,12.90
2023-03-24T04:31:34.370Z,8.60
2023-03-24T04:36:42.718Z,5.45
2023-03-24T04:39:14.776Z,6.47
2023-03-24T04:41:43.324Z,6.68
2023-03-24T04:44:12.668Z,5.22
2023-03-24T04:46:40.363Z,8.57
2023-03-24T04:49:08.024Z,6.72
2023-03-24T04:51:35.766Z,7.63
2023-03-24T04:54:02.798Z,12.05
2023-03-24T04:56:47.784Z,8.13
2023-03-24T04:59:15.838Z,9.23
2023-03-24T05:01:50.130Z,6.32
2023-03-24T05:04:18.384Z,9.65
2023-03-24T05:06:46.859Z,12.07
2023-03-24T05:09:15.122Z,7.43
2023-03-24T05:11:42.613Z,7.60
2023-03-24T05:14:10.035Z,3.85
2023-03-24T05:16:37.749Z,11.77
2023-03-24T05:19:05.277Z,10.55
2023-03-24T05:21:33.611Z,12.15
2023-03-24T05:24:01.324Z,14.82
2023-03-24T05:26:28.878Z,14.25
2023-03-24T05:28:57.359Z,11.20
2023-03-24T05:31:24.352Z,20.10
2023-03-24T05:33:51.528Z,30.15
2023-03-24T05:36:18.643Z,9.95
2023-03-24T05:38:46.033Z,18.23
2023-03-24T05:41:12.963Z,34.70
2023-03-24T05:43:40.296Z,25.80
2023-03-24T05:46:07.648Z,13.75
2023-03-24T05:48:34.745Z,25.00
2023-03-24T05:51:02.113Z,16.60
2023-03-24T05:53:29.067Z,17.38
2023-03-24T05:55:58.800Z,14.60
2023-03-24T05:58:25.865Z,19.67
2023-03-24T06:00:54.626Z,19.70
2023-03-24T06:03:22.142Z,11.05
2023-03-24T06:05:50.843Z,28.30
2023-03-24T06:08:18.879Z,29.08
2023-03-24T06:10:46.558Z,24.52
2023-03-24T06:13:14.363Z,18.48
2023-03-24T06:15:43.119Z,30.98
2023-03-24T06:18:14.145Z,28.38
2023-03-24T06:20:43.886Z,46.88
2023-03-24T06:23:11.362Z,17.58
2023-03-24T06:25:38.680Z,26.98
2023-03-24T06:28:06.546Z,32.78
2023-03-24T06:30:33.961Z,21.83
2023-03-24T06:33:01.065Z,21.95
2023-03-24T06:35:28.310Z,41.78
2023-03-24T06:37:55.978Z,39.17
2023-03-24T06:40:23.526Z,32.22
2023-03-24T06:42:50.578Z,21.98
2023-03-24T06:45:17.922Z,52.15
2023-03-24T06:47:45.385Z,33.67
2023-03-24T06:50:12.429Z,44.80
2023-03-24T06:52:40.851Z,21.83
2023-03-24T06:55:08.463Z,63.15
2023-03-24T06:57:35.420Z,26.25
2023-03-24T07:00:03.235Z,35.03
2023-03-24T07:02:35.809Z,37.97
2023-03-24T07:05:08.387Z,77.15
2023-03-24T07:10:06.614Z,46.75
2023-03-24T07:12:36.602Z,45.45
2023-03-24T07:17:32.595Z,22.08
2023-03-24T07:19:59.898Z,34.40
2023-03-24T07:22:26.939Z,50.60
2023-03-24T07:24:54.340Z,47.13
2023-03-24T07:27:21.591Z,34.85
2023-03-24T07:29:48.586Z,50.17
2023-03-24T07:32:15.624Z,34.50
2023-03-24T07:34:43.979Z,22.02
2023-03-24T07:37:11.496Z,28.27
2023-03-24T07:39:38.997Z,31.83
2023-03-24T07:42:06.291Z,28.30
2023-03-24T07:44:33.356Z,44.45
2023-03-24T07:47:00.815Z,20.77
2023-03-24T07:49:27.928Z,26.63
2023-03-24T07:51:54.935Z,31.77
2023-03-24T07:54:22.008Z,40.30
2023-03-24T07:56:51.182Z,26.05
2023-03-24T07:59:18.768Z,55.55
2023-03-24T08:01:48.401Z,38.58
2023-03-24T08:04:16.258Z,55.17
2023-03-24T08:06:44.363Z,42.47
2023-03-24T08:09:12.105Z,45.53
2023-03-24T08:11:40.555Z,34.70
2023-03-24T08:14:08.351Z,45.70
2023-03-24T08:16:35.437Z,34.35
2023-03-24T08:19:02.884Z,57.75
2023-03-24T08:21:30.181Z,55.13
2023-03-24T08:23:57.261Z,40.08
2023-03-24T08:26:26.867Z,44.17
2023-03-24T08:28:54.451Z,51.97
2023-03-24T08:31:21.913Z,52.90
2023-03-24T08:33:49.306Z,39.55
2023-03-24T08:36:21.714Z,43.50
2023-03-24T08:38:51.900Z,35.58
2023-03-24T08:41:19.210Z,49.78
2023-03-24T08:43:46.754Z,43.45
2023-03-24T08:46:15.882Z,52.15
2023-03-24T08:48:46.109Z,39.63
2023-03-24T08:51:15.451Z,35.67
2023-03-24T08:53:43.566Z,48.92
2023-03-24T08:56:11.161Z,49.85
2023-03-24T08:58:38.609Z,53.42
2023-03-24T09:01:06.100Z,48.05
2023-03-24T09:03:33.121Z,42.13
2023-03-24T09:06:00.588Z,49.88
2023-03-24T09:08:28.208Z,36.17
2023-03-24T09:10:56.618Z,53.72
2023-03-24T09:13:24.495Z,37.63
2023-03-24T09:15:57.591Z,46.67
2023-03-24T09:18:24.985Z,38.00
2023-03-24T09:20:52.445Z,39.58
2023-03-24T09:23:20.329Z,37.67
2023-03-24T09:25:49.904Z,39.85
2023-03-24T09:30:45.083Z,51.08
2023-03-24T09:33:13.355Z,35.13
2023-03-24T09:35:41.192Z,40.25
2023-03-24T09:38:10.931Z,47.33
2023-03-24T09:43:11.667Z,37.13
2023-03-24T09:45:45.510Z,47.50
2023-03-24T09:48:30.739Z,35.35
2023-03-24T09:51:04.312Z,32.38
2023-03-24T09:53:31.874Z,31.48
2023-03-24T09:56:06.846Z,26.80
2023-03-24T09:58:34.664Z,29.27
2023-03-24T10:01:02.470Z,33.75
2023-03-24T10:03:30.257Z,27.15
2023-03-24T10:06:30.557Z,23.40
2023-03-24T10:09:07.571Z,42.85
2023-03-24T10:11:39.925Z,29.02
2023-03-24T10:14:13.839Z,28.20
2023-03-24T10:16:52.615Z,23.77
2023-03-24T10:19:26.360Z,23.63
2023-03-24T10:22:12.909Z,39.78
2023-03-24T10:24:44.768Z,21.33
2023-03-24T10:27:31.534Z,30.35
2023-03-24T10:30:02.842Z,25.30
2023-03-24T10:32:33.661Z,28.95
2023-03-24T10:35:09.642Z,37.75
2023-03-24T10:37:37.957Z,34.13
2023-03-24T10:40:18.298Z,34.75
2023-03-24T10:42:46.859Z,62.40
2023-03-24T10:45:41.759Z,70.53
2023-03-24T10:48:09.883Z,44.35
2023-03-24T10:50:42.543Z,54.03
2023-03-24T10:53:21.007Z,35.67
2023-03-24T10:55:57.385Z,32.13
2023-03-24T10:58:35.389Z,22.92
2023-03-24T11:01:04.040Z,39.10
2023-03-24T11:03:37.660Z,39.63
2023-03-24T11:06:07.000Z,33.08
2023-03-24T11:08:38.723Z,27.13
2023-03-24T11:11:32.024Z,25.75
2023-03-24T11:14:02.355Z,28.10
2023-03-24T11:16:30.701Z,33.50
2023-03-24T11:19:06.028Z,38.28
2023-03-24T11:21:37.208Z,37.78
2023-03-24T11:24:14.676Z,38.17
2023-03-24T11:27:03.860Z,41.25
2023-03-24T11:29:39.922Z,40.45
2023-03-24T11:32:15.822Z,29.88
2023-03-24T11:34:53.007Z,29.08
2023-03-24T11:37:35.598Z,32.97
2023-03-24T11:40:20.897Z,33.45
2023-03-24T11:42:51.170Z,24.45
2023-03-24T11:45:28.312Z,40.55
2023-03-24T11:47:59.764Z,31.10
2023-03-24T11:50:31.530Z,38.53
2023-03-24T11:53:02.244Z,36.20
2023-03-24T11:55:29.812Z,46.70
2023-03-24T11:57:57.395Z,42.33
2023-03-24T12:00:25.164Z,52.88
2023-03-24T12:03:11.213Z,46.80
2023-03-24T12:05:52.962Z,52.63
2023-03-24T12:08:46.370Z,40.38
2023-03-24T12:11:19.226Z,39.65
2023-03-24T12:13:50.014Z,42.85
2023-03-24T12:16:28.412Z,29.48
2023-03-24T12:19:17.716Z,48.45
2023-03-24T12:21:51.050Z,41.47
2023-03-24T12:24:25.810Z,46.92
2023-03-24T12:27:01.560Z,34.08
2023-03-24T12:29:38.456Z,38.15
2023-03-24T12:32:48.078Z,47.65
2023-03-24T12:35:15.441Z,43.92
2023-03-24T12:37:47.945Z,46.78
2023-03-24T12:40:41.202Z,30.67
2023-03-24T12:43:16.317Z,34.95
2023-03-24T12:45:52.740Z,42.42
2023-03-24T12:48:56.200Z,35.83
2023-03-24T12:51:25.961Z,35.47
2023-03-24T12:56:45.877Z,54.42
2023-03-24T12:59:27.072Z,53.10
2023-03-24T13:02:09.782Z,39.80
2023-03-24T13:04:38.742Z,47.58
2023-03-24T13:07:17.894Z,94.82
2023-03-24T13:10:05.104Z,51.60
2023-03-24T13:12:49.262Z,55.03
2023-03-24T13:15:36.292Z,57.55
2023-03-24T13:18:06.317Z,61.40
2023-03-24T13:20:47.932Z,59.70
2023-03-24T13:23:45.560Z,40.63
2023-03-24T13:26:21.723Z,43.80
2023-03-24T13:29:01.441Z,30.42
2023-03-24T13:31:38.012Z,47.40
2023-03-24T13:34:09.365Z,28.55
2023-03-24T13:36:50.632Z,36.03
2023-03-24T13:39:23.973Z,39.65
2023-03-24T13:41:53.467Z,81.30
2023-03-24T13:44:23.952Z,56.83
2023-03-24T13:47:16.885Z,59.30
2023-03-24T13:49:59.661Z,66.50
2023-03-24T13:52:36.650Z,53.22
2023-03-24T13:55:15.162Z,51.15
2023-03-24T13:57:58.207Z,47.53
2023-03-24T14:00:27.019Z,69.93
2023-03-24T14:03:17.278Z,32.67
2023-03-24T14:06:05.861Z,25.27
2023-03-24T14:09:15.549Z,37.70
2023-03-24T14:11:45.935Z,14.23
2023-03-24T14:14:16.040Z,29.75
2023-03-24T14:17:04.388Z,41.85
2023-03-24T14:22:10.722Z,39.92
2023-03-24T14:24:38.986Z,29.48
2023-03-24T14:27:35.296Z,42.75
2023-03-24T14:30:21.377Z,39.38
2023-03-24T14:32:56.045Z,17.25
2023-03-24T14:35:42.212Z,23.05
2023-03-24T14:38:29.618Z,44.95
2023-03-24T14:41:06.478Z,33.03
2023-03-24T14:43:39.600Z,30.10
2023-03-24T14:46:21.936Z,29.40
2023-03-24T14:49:11.984Z,24.08
2023-03-24T14:51:58.817Z,101.25
2023-03-24T14:54:47.787Z,21.55
2023-03-24T14:57:31.859Z,23.60
2023-03-24T15:00:12.275Z,11.63
2023-03-24T15:02:51.418Z,28.55
2023-03-24T15:05:30.064Z,21.95
2023-03-24T15:08:08.941Z,15.88
2023-03-24T15:10:48.454Z,20.25
2023-03-24T15:13:43.477Z,19.13
2023-03-24T15:16:10.913Z,11.98
2023-03-24T15:19:01.805Z,18.90
2023-03-24T15:21:35.436Z,25.80
2023-03-24T15:24:23.226Z,26.73
2023-03-24T15:26:54.026Z,25.27
2023-03-24T15:29:23.441Z,24.40
2023-03-24T15:31:52.843Z,26.92
2023-03-24T15:34:29.694Z,18.27
2023-03-24T15:37:00.362Z,22.40
2023-03-24T15:39:29.142Z,24.02
2023-03-24T15:41:57.095Z,20.75
2023-03-24T15:44:31.190Z,11.07
2023-03-24T15:46:59.658Z,14.63
2023-03-24T15:49:32.318Z,32.80
2023-03-24T15:52:04.901Z,17.75
2023-03-24T15:54:37.910Z,11.35
2023-03-24T15:57:16.849Z,17.45
2023-03-24T16:00:19.169Z,15.15
2023-03-24T16:02:46.928Z,15.65
2023-03-24T16:05:25.546Z,13.82
2023-03-24T16:08:00.375Z,22.73
2023-03-24T16:10:33.881Z,21.33
2023-03-24T16:13:21.627Z,22.02
2023-03-24T16:15:59.790Z,24.83
2023-03-24T16:18:34.675Z,14.43
2023-03-24T16:21:02.781Z,12.73
2023-03-24T16:23:31.107Z,13.55
2023-03-24T16:25:58.878Z,10.80
2023-03-24T16:28:27.781Z,20.40
2023-03-24T16:31:06.581Z,21.00
2023-03-24T16:33:35.744Z,12.68
2023-03-24T16:36:03.722Z,11.35
2023-03-24T16:38:33.292Z,17.92
2023-03-24T16:41:01.094Z,17.65
2023-03-24T16:43:33.378Z,13.95
2023-03-24T16:46:02.191Z,12.13
2023-03-24T16:48:31.492Z,15.45
2023-03-24T16:50:59.109Z,9.88
2023-03-24T16:53:27.180Z,11.88
2023-03-24T16:55:55.019Z,19.02
2023-03-24T16:58:22.692Z,9.25
2023-03-24T17:00:52.154Z,20.13
2023-03-24T17:03:20.031Z,10.48
2023-03-24T17:05:49.107Z,14.18
2023-03-24T17:08:16.860Z,19.77
2023-03-24T17:10:45.010Z,21.42
2023-03-24T17:13:33.296Z,12.88
2023-03-24T17:16:01.314Z,17.17
2023-03-24T17:18:29.085Z,10.85
2023-03-24T17:20:56.912Z,12.75
2023-03-24T17:23:24.930Z,19.75
2023-03-24T17:25:52.593Z,10.07
2023-03-24T17:28:20.492Z,14.15
2023-03-24T17:30:49.306Z,10.82
2023-03-24T17:33:17.186Z,11.60
2023-03-24T17:35:48.476Z,14.35
2023-03-24T17:38:16.728Z,14.43
2023-03-24T17:40:44.488Z,12.23
2023-03-24T17:43:12.332Z,11.30
2023-03-24T17:45:43.288Z,11.77
2023-03-24T17:48:11.235Z,12.65
2023-03-24T17:50:39.184Z,9.30
2023-03-24T17:53:07.406Z,12.27
2023-03-24T17:55:35.065Z,17.80
2023-03-24T17:58:02.708Z,7.80
2023-03-24T18:00:30.434Z,23.52
2023-03-24T18:02:58.256Z,15.18
2023-03-24T18:05:26.300Z,21.33
2023-03-24T18:07:54.115Z,7.25
2023-03-24T18:10:24.801Z,8.95
2023-03-24T18:12:53.344Z,11.82
2023-03-24T18:15:21.120Z,8.88
2023-03-24T18:17:48.824Z,14.05
2023-03-24T18:20:16.790Z,6.88
2023-03-24T18:22:44.549Z,12.07
2023-03-24T18:25:13.628Z,11.95
2023-03-24T18:27:42.596Z,13.63
2023-03-24T18:30:13.285Z,17.73
2023-03-24T18:32:43.005Z,10.43
2023-03-24T18:35:16.660Z,9.00
2023-03-24T18:37:45.300Z,13.60
2023-03-24T18:40:14.863Z,31.73
2023-03-24T18:42:44.774Z,10.57
2023-03-24T18:47:48.418Z,8.88
2023-03-24T18:50:16.076Z,10.07
2023-03-24T18:52:43.745Z,17.42
2023-03-24T18:55:11.579Z,8.60
2023-03-24T18:57:41.538Z,11.45
2023-03-24T19:02:38.833Z,10.57
2023-03-24T19:05:08.064Z,13.10
2023-03-24T19:07:37.201Z,7.68
2023-03-24T19:10:05.670Z,11.18
2023-03-24T19:12:33.633Z,10.68
2023-03-24T19:15:01.751Z,15.13
2023-03-24T19:17:29.506Z,16.05
2023-03-24T19:19:58.189Z,13.10
2023-03-24T19:22:27.005Z,15.10
2023-03-24T19:24:54.906Z,10.95
2023-03-24T19:27:23.692Z,18.08
2023-03-24T19:29:53.102Z,11.15
2023-03-24T19:32:21.045Z,12.63
2023-03-24T19:34:50.140Z,11.77
2023-03-24T19:37:17.790Z,13.15
2023-03-24T19:39:46.154Z,12.50
2023-03-24T19:42:15.010Z,12.63
2023-03-24T19:44:42.564Z,9.90
2023-03-24T19:47:10.383Z,14.60
2023-03-24T19:49:38.166Z,16.17
2023-03-24T19:52:06.636Z,16.90
2023-03-24T19:54:34.329Z,11.07
2023-03-24T19:57:02.186Z,13.30
2023-03-24T19:59:29.968Z,18.05
2023-03-24T20:01:57.757Z,17.92
2023-03-24T20:04:25.395Z,12.93
2023-03-24T20:06:53.066Z,9.80
2023-03-24T20:09:20.704Z,12.07
2023-03-24T20:11:48.375Z,13.65
2023-03-24T20:14:16.992Z,15.65
2023-03-24T20:16:44.786Z,15.35
2023-03-24T20:19:12.285Z,14.38
2023-03-24T20:21:39.700Z,13.38
2023-03-24T20:24:07.442Z,17.70
2023-03-24T20:26:35.052Z,16.73
2023-03-24T20:29:02.765Z,16.30
2023-03-24T20:31:30.616Z,13.98
2023-03-24T20:33:59.286Z,19.30
2023-03-24T20:36:26.975Z,12.15
2023-03-24T20:38:59.136Z,11.43
2023-03-24T20:41:27.457Z,10.77
2023-03-24T20:43:55.205Z,11.98
2023-03-24T20:46:22.852Z,12.45
2023-03-24T20:48:50.700Z,12.55
2023-03-24T20:51:18.396Z,12.80
2023-03-24T20:53:49.689Z,13.18
2023-03-24T20:56:18.304Z,8.18
2023-03-24T20:58:46.375Z,13.40
2023-03-24T21:01:22.186Z,11.25
2023-03-24T21:03:50.641Z,14.77
2023-03-24T21:06:18.904Z,10.88
2023-03-24T21:08:46.507Z,16.35
2023-03-24T21:11:14.548Z,5.90
2023-03-24T21:13:42.244Z,13.00
2023-03-24T21:16:10.277Z,7.70
2023-03-24T21:18:44.031Z,12.75
2023-03-24T21:21:12.815Z,10.23
2023-03-24T21:23:41.118Z,13.07
2023-03-24T21:26:12.494Z,13.82
2023-03-24T21:28:41.198Z,13.13
2023-03-24T21:31:12.220Z,12.70
2023-03-24T21:33:40.987Z,9.25
2023-03-24T21:36:09.988Z,9.65
2023-03-24T21:38:37.851Z,6.93
2023-03-24T21:41:05.568Z,7.03
2023-03-24T21:43:33.344Z,6.75
2023-03-24T21:46:01.072Z,9.57
2023-03-24T21:48:28.861Z,5.43
2023-03-24T21:50:57.575Z,9.07
2023-03-24T21:53:26.247Z,6.72
2023-03-24T21:56:05.403Z,9.50
2023-03-24T21:58:33.753Z,9.77
2023-03-24T22:01:01.590Z,7.90
2023-03-24T22:03:30.745Z,10.30
2023-03-24T22:05:58.418Z,10.00
2023-03-24T22:08:30.736Z,8.85
2023-03-24T22:10:59.127Z,9.95
2023-03-24T22:13:27.511Z,6.47
2023-03-24T22:15:55.900Z,9.45
2023-03-24T22:18:24.000Z,4.10
2023-03-24T22:21:01.067Z,10.98
2023-03-24T22:23:32.927Z,6.57
2023-03-24T22:26:04.794Z,6.38
2023-03-24T22:28:33.111Z,4.95
2023-03-24T22:31:04.668Z,10.40
2023-03-24T22:33:32.848Z,7.88
2023-03-24T22:36:01.415Z,8.27
2023-03-24T22:38:29.612Z,9.93
2023-03-24T22:41:00.970Z,7.38
2023-03-24T22:43:29.010Z,6.18
2023-03-24T22:45:56.728Z,7.00
2023-03-24T22:48:24.588Z,9.07
2023-03-24T22:50:52.286Z,10.48
2023-03-24T22:53:20.468Z,10.93
2023-03-24T22:55:48.288Z,11.13
2023-03-24T22:58:16.330Z,5.20
2023-03-24T23:00:44.755Z,5.97
2023-03-24T23:03:12.414Z,4.88
2023-03-24T23:05:41.030Z,12.65
2023-03-24T23:08:09.643Z,10.20
2023-03-24T23:10:37.499Z,9.77
2023-03-24T23:13:05.196Z,16.52
2023-03-24T23:15:32.899Z,5.88
2023-03-24T23:18:01.029Z,8.07
2023-03-24T23:20:29.819Z,4.63
2023-03-24T23:22:57.839Z,10.55
2023-03-24T23:25:26.056Z,8.02
2023-03-24T23:27:53.673Z,5.72
2023-03-24T23:30:21.571Z,6.97
2023-03-24T23:32:50.889Z,3.13
2023-03-24T23:35:19.164Z,6.70
2023-03-24T23:37:46.837Z,4.13
2023-03-24T23:40:15.595Z,3.42
2023-03-24T23:42:46.643Z,3.35
2023-03-24T23:45:15.651Z,7.28
2023-03-24T23:47:44.135Z,8.73
2023-03-24T23:50:12.465Z,2.47
2023-03-24T23:52:44.229Z,8.73
2023-03-24T23:55:15.279Z,3.35
2023-03-24T23:57:43.498Z,9.35
